Time;durP1;ratioP1;P1;durP2;ratioP2;P2;SDS_P1;SDS_P2;PMS_P1;PMS_P2;Temp;Humidity;BMP_temperature;BMP_pressure;BME280_temperature;BME280_humidity;BME280_pressure;Samples;Min_cycle;Max_cycle;Signal;HPM_P1;HPM_P2
2022/11/28 00:01:30;;;;;;;8.93;6.10;;;8.70;81.30;;;10.87;60.33;101263.44;5053110;28;20593;-57
2022/11/28 00:03:59;;;;;;;6.27;5.67;;;8.70;81.50;;;10.88;60.59;101259.00;5053492;28;20221;-56
2022/11/28 00:06:27;;;;;;;10.00;5.70;;;8.70;81.50;;;10.82;60.16;101252.56;5073208;28;20272;-55
2022/11/28 00:08:57;;;;;;;6.03;5.13;;;8.60;81.40;;;10.81;60.84;101255.38;5073757;28;20193;-57
2022/11/28 00:11:24;;;;;;;6.87;5.13;;;8.60;81.50;;;10.72;60.67;101259.78;5072355;28;20217;-55
2022/11/28 00:13:51;;;;;;;5.70;5.00;;;8.50;81.60;;;10.70;61.27;101255.66;5077858;28;20725;-56
2022/11/28 00:16:21;;;;;;;6.70;5.50;;;8.60;81.90;;;10.58;61.53;101247.25;5070249;28;20206;-56
2022/11/28 00:18:50;;;;;;;6.90;5.40;;;8.50;81.90;;;10.54;61.61;101245.94;5057251;28;20662;-56
2022/11/28 00:21:19;;;;;;;7.33;5.50;;;8.50;82.20;;;10.51;61.54;101240.16;5056610;28;20210;-55
2022/11/28 00:23:47;;;;;;;6.53;5.50;;;8.50;82.30;;;10.43;62.06;101233.09;5057057;28;20267;-55
2022/11/28 00:26:18;;;;;;;8.33;4.90;;;8.40;82.20;;;10.45;61.57;101236.41;5057410;28;20193;-56
2022/11/28 00:28:45;;;;;;;7.63;5.57;;;8.40;82.40;;;10.35;61.64;101216.47;5059125;28;20205;-56
2022/11/28 00:31:14;;;;;;;6.07;5.47;;;8.40;82.40;;;10.44;61.53;101218.94;5068778;28;20249;-57
2022/11/28 00:33:42;;;;;;;6.97;5.67;;;8.40;82.40;;;10.49;61.50;101227.19;5075591;28;20292;-53
2022/11/28 00:36:11;;;;;;;7.00;5.87;;;8.40;82.50;;;10.50;60.95;101223.59;5059262;28;20315;-57
2022/11/28 00:38:39;;;;;;;7.27;5.27;;;8.40;82.20;;;10.52;61.74;101232.13;5056605;28;20724;-57
2022/11/28 00:41:09;;;;;;;7.07;5.27;;;8.40;82.20;;;10.60;61.46;101240.03;5056378;28;20240;-53
2022/11/28 00:43:36;;;;;;;7.47;5.63;;;8.40;82.20;;;10.58;61.09;101228.00;5076121;28;20742;-55
2022/11/28 00:46:04;;;;;;;7.10;5.90;;;8.30;81.90;;;10.62;61.20;101217.03;5096999;28;20184;-55
2022/11/28 00:48:32;;;;;;;7.70;5.63;;;8.30;81.60;;;10.55;60.35;101210.75;5081033;28;20649;-56
2022/11/28 00:51:06;;;;;;;7.57;5.77;;;8.30;81.40;;;10.56;60.50;101212.41;5060767;28;20595;-55
2022/11/28 00:53:33;;;;;;;7.07;5.87;;;8.40;81.50;;;10.60;60.29;101195.28;5056501;28;20228;-54
2022/11/28 00:56:04;;;;;;;5.90;5.30;;;8.40;81.40;;;10.54;60.06;101188.06;5056664;28;20265;-55
2022/11/28 00:58:31;;;;;;;8.07;5.33;;;8.30;81.10;;;10.47;60.61;101186.22;5056843;28;20243;-57
2022/11/28 01:00:58;;;;;;;7.43;5.40;;;8.30;81.00;;;10.32;60.45;101178.16;5061489;28;20596;-57
2022/11/28 01:03:26;;;;;;;7.20;5.50;;;8.30;80.60;;;10.32;60.42;101180.78;5076399;28;20213;-57
2022/11/28 01:05:53;;;;;;;6.50;4.83;;;8.30;80.30;;;10.33;60.16;101177.16;5076016;28;20197;-59
2022/11/28 01:08:20;;;;;;;7.33;5.10;;;8.30;80.30;;;10.36;60.08;101174.22;5076200;28;20197;-56
2022/11/28 01:10:46;;;;;;;6.70;5.83;;;8.30;80.30;;;10.37;59.91;101169.75;5075368;28;20185;-55
2022/11/28 01:13:15;;;;;;;5.53;4.67;;;8.30;80.10;;;10.42;60.18;101164.84;5075984;28;20209;-57
2022/11/28 01:15:42;;;;;;;8.30;5.57;;;8.30;79.90;;;10.50;59.63;101165.69;5091270;28;20204;-56
2022/11/28 01:18:09;;;;;;;5.43;4.93;;;8.30;79.80;;;10.59;59.13;101167.34;5095207;28;20253;-57
2022/11/28 01:20:36;;;;;;;7.10;5.70;;;8.40;79.70;;;10.65;59.19;101182.44;5078199;28;20296;-58
2022/11/28 01:23:03;;;;;;;5.60;5.00;;;8.40;79.60;;;10.73;59.33;101189.53;5075259;28;20217;-58
2022/11/28 01:25:31;;;;;;;4.97;4.47;;;8.40;79.50;;;10.79;59.03;101181.00;5075633;28;20185;-56
2022/11/28 01:27:58;;;;;;;7.07;5.20;;;8.40;79.50;;;10.77;58.61;101162.72;5087439;28;20254;-57
2022/11/28 01:30:26;;;;;;;5.77;5.17;;;8.40;79.30;;;10.66;58.87;101154.31;5096281;28;20722;-56
2022/11/28 01:32:54;;;;;;;6.07;4.50;;;8.40;79.10;;;10.70;58.77;101150.38;5096115;28;20226;-56
2022/11/28 01:35:20;;;;;;;5.50;4.87;;;8.50;79.20;;;10.67;59.03;101146.25;5095938;28;20718;-56
2022/11/28 01:37:48;;;;;;;7.83;5.10;;;8.50;79.30;;;10.64;58.95;101151.88;5096148;28;20238;-56
2022/11/28 01:40:15;;;;;;;7.20;4.90;;;8.40;79.10;;;10.65;58.58;101152.69;5085778;28;20656;-56
2022/11/28 01:42:42;;;;;;;7.47;5.87;;;8.50;79.20;;;10.58;59.18;101152.50;5077408;28;20302;-57
2022/11/28 01:45:18;;;;;;;5.23;4.67;;;8.40;78.90;;;10.65;59.11;101153.50;5095746;28;20249;-57
2022/11/28 01:47:49;;;;;;;7.03;4.93;;;8.50;79.10;;;10.70;58.48;101153.84;5086637;28;20185;-55
2022/11/28 01:50:19;;;;;;;6.03;5.03;;;8.50;79.10;;;10.78;58.22;101143.31;5075196;28;20590;-57
2022/11/28 01:52:52;;;;;;;7.23;5.20;;;8.50;78.90;;;10.82;58.38;101139.34;5074591;28;20266;-55
2022/11/28 01:55:25;;;;;;;6.93;4.80;;;8.50;78.70;;;10.86;57.74;101140.66;5075215;28;20185;-55
2022/11/28 01:57:54;;;;;;;8.33;4.77;;;8.50;78.60;;;10.85;57.75;101123.22;5074734;28;20197;-56
2022/11/28 02:00:22;;;;;;;6.10;5.13;;;8.50;78.40;;;10.81;57.70;101121.09;5075611;28;20699;-57
2022/11/28 02:02:59;;;;;;;4.90;4.40;;;8.50;77.70;;;10.83;57.27;101119.94;5073995;28;20681;-57
2022/11/28 02:05:26;;;;;;;5.20;4.57;;;8.60;77.70;;;10.87;57.20;101115.97;5075281;28;20641;-56
2022/11/28 02:07:53;;;;;;;5.70;4.50;;;8.60;77.60;;;10.79;57.02;101113.34;5075067;28;20192;-55
2022/11/28 02:10:26;;;;;;;4.93;4.40;;;8.50;77.20;;;10.87;57.10;101115.97;5073517;28;20206;-55
2022/11/28 02:13:20;;;;;;;5.53;5.03;;;8.60;77.00;;;10.93;56.50;101103.97;5071278;28;20285;-58
2022/11/28 02:16:16;;;;;;;5.00;4.23;;;8.60;77.00;;;10.85;56.58;101107.44;5074043;28;20215;-58
2022/11/28 02:18:59;;;;;;;5.60;4.13;;;8.60;76.70;;;10.89;56.97;101103.47;5072682;28;20645;-59
2022/11/28 02:21:49;;;;;;;5.57;4.30;;;8.70;76.60;;;10.83;56.41;101108.56;5054580;28;20213;-55
2022/11/28 02:24:53;;;;;;;4.40;3.97;;;8.60;76.40;;;10.94;56.67;101104.75;5066128;28;20269;-59
2022/11/28 02:27:39;;;;;;;5.33;4.80;;;8.70;76.40;;;10.93;56.08;101097.88;5074877;28;20633;-57
2022/11/28 02:30:20;;;;;;;4.13;3.80;;;8.70;76.00;;;10.94;56.14;101094.22;5072818;28;20201;-57
2022/11/28 02:33:04;;;;;;;6.33;4.77;;;8.70;75.90;;;10.98;56.37;101090.28;5074486;28;20217;-57
2022/11/28 02:35:40;;;;;;;4.73;4.20;;;8.70;75.80;;;11.11;55.71;101093.19;5073254;28;20313;-57
2022/11/28 02:38:19;;;;;;;6.43;5.00;;;8.80;76.00;;;11.06;55.51;101087.63;5074630;28;20208;-58
2022/11/28 02:41:00;;;;;;;4.60;4.20;;;8.70;75.70;;;11.15;55.59;101086.63;5074468;28;20197;-55
2022/11/28 02:43:42;;;;;;;5.37;4.30;;;8.80;75.80;;;11.22;55.75;101080.47;5083018;28;20744;-57
2022/11/28 02:46:15;;;;;;;6.83;5.10;;;8.80;75.70;;;11.13;55.70;101083.31;5089449;28;20198;-56
2022/11/28 02:48:52;;;;;;;5.27;4.77;;;8.80;75.50;;;11.16;55.43;101077.72;5071820;28;20185;-55
2022/11/28 02:51:30;;;;;;;5.27;4.27;;;8.80;75.50;;;11.17;55.52;101082.00;5072592;28;20219;-56
2022/11/28 02:54:00;;;;;;;4.83;4.33;;;8.80;75.40;;;11.17;55.75;101084.63;5073626;28;20196;-54
2022/11/28 02:56:28;;;;;;;4.93;4.33;;;8.80;75.50;;;11.15;55.69;101084.78;5075969;28;20188;-56
2022/11/28 02:58:55;;;;;;;4.60;4.10;;;8.80;75.40;;;11.22;55.34;101083.13;5075101;28;20201;-56
2022/11/28 03:01:28;;;;;;;5.33;4.83;;;8.80;75.60;;;11.20;55.67;101079.00;5076555;28;20209;-58
2022/11/28 03:04:12;;;;;;;6.20;4.40;;;8.80;76.20;;;11.16;55.41;101072.44;5072460;28;20217;-56
2022/11/28 03:06:51;;;;;;;4.77;4.30;;;8.80;75.40;;;11.17;55.43;101076.72;5073915;28;20189;-55
2022/11/28 03:10:06;;;;;;;4.97;4.27;;;8.80;75.40;;;11.18;55.30;101083.63;5074062;28;20189;-56
2022/11/28 03:12:50;;;;;;;4.90;4.50;;;8.80;75.30;;;11.14;55.10;101084.97;5010973;28;20221;-57
2022/11/28 03:15:25;;;;;;;4.90;4.50;;;8.80;75.40;;;11.21;55.43;101081.50;5078059;28;20261;-56
2022/11/28 03:18:06;;;;;;;5.20;4.57;;;8.80;75.30;;;11.20;55.19;101063.19;5094334;28;20665;-54
2022/11/28 03:20:46;;;;;;;4.87;4.37;;;8.80;75.20;;;11.22;54.68;101075.22;5074355;28;20628;-55
2022/11/28 03:23:18;;;;;;;5.07;4.23;;;8.80;75.20;;;11.27;55.06;101064.16;5073780;28;20262;-55
2022/11/28 03:25:57;;;;;;;7.40;4.90;;;8.80;75.10;;;11.24;55.15;101067.16;5073460;28;20201;-55
2022/11/28 03:28:31;;;;;;;6.67;4.30;;;8.80;75.10;;;11.24;55.05;101075.06;5073841;28;20192;-54
2022/11/28 03:31:03;;;;;;;6.77;5.23;;;8.80;74.90;;;11.22;55.25;101061.25;5073144;28;20250;-58
2022/11/28 03:33:39;;;;;;;5.60;4.70;;;8.80;74.80;;;11.10;55.44;101063.41;5073446;28;20211;-57
2022/11/28 03:36:15;;;;;;;4.80;4.23;;;8.80;74.60;;;11.12;55.25;101052.72;5073454;28;20219;-58
2022/11/28 03:38:48;;;;;;;5.97;4.80;;;8.80;74.50;;;11.01;54.97;101066.22;5053685;28;20197;-57
2022/11/28 03:41:21;;;;;;;5.40;4.20;;;8.80;74.20;;;11.05;54.91;101068.38;5053124;28;20263;-57
2022/11/28 03:43:56;;;;;;;6.47;4.07;;;8.80;74.20;;;11.16;55.27;101067.19;5075984;28;20197;-56
2022/11/28 03:46:33;;;;;;;5.40;4.80;;;8.80;74.40;;;11.17;54.64;101064.34;5093740;28;20176;-54
2022/11/28 03:49:05;;;;;;;5.17;4.67;;;8.80;74.00;;;11.24;54.25;101062.72;5080578;28;20193;-55
2022/11/28 03:51:41;;;;;;;6.13;4.53;;;8.80;73.90;;;11.30;54.25;101069.09;5080011;28;20221;-54
2022/11/28 03:54:14;;;;;;;6.03;4.50;;;8.90;73.90;;;11.41;54.47;101072.16;5080505;28;20207;-54
2022/11/28 03:56:53;;;;;;;5.53;4.10;;;8.90;74.10;;;11.39;54.33;101068.06;5080131;28;20239;-55
2022/11/28 03:59:27;;;;;;;4.77;3.93;;;9.00;73.80;;;11.43;54.27;101069.38;5080238;28;20192;-55
2022/11/28 04:02:08;;;;;;;5.10;4.33;;;9.00;73.90;;;11.41;54.61;101074.00;5079521;28;20208;-54
2022/11/28 04:04:47;;;;;;;4.93;4.37;;;9.00;73.90;;;11.29;54.27;101072.75;5079867;28;20209;-58
2022/11/28 04:07:27;;;;;;;4.80;4.07;;;9.00;74.00;;;11.24;54.58;101069.78;5076902;28;20257;-54
2022/11/28 04:10:05;;;;;;;4.63;4.23;;;8.90;74.00;;;11.30;54.64;101071.72;5080726;28;20192;-56
2022/11/28 04:12:49;;;;;;;6.43;4.87;;;9.00;74.40;;;11.33;54.67;101063.50;5079266;28;20254;-56
2022/11/28 04:15:28;;;;;;;5.23;4.70;;;8.90;74.60;;;11.35;54.89;101072.03;5091894;28;20230;-55
2022/11/28 04:18:01;;;;;;;5.43;4.93;;;9.00;74.80;;;11.41;55.21;101066.09;5060234;28;20220;-57
2022/11/28 04:20:38;;;;;;;4.93;4.20;;;9.00;75.00;;;11.45;54.71;101072.66;5075176;28;20193;-54
2022/11/28 04:23:13;;;;;;;6.17;5.00;;;9.00;75.10;;;11.44;55.23;101065.72;5080396;28;20239;-55
2022/11/28 04:25:49;;;;;;;5.97;4.30;;;9.00;75.30;;;11.37;55.19;101067.41;5080379;28;20293;-57
2022/11/28 04:28:24;;;;;;;5.80;4.73;;;8.90;75.10;;;11.35;55.42;101072.88;5079828;28;20578;-58
2022/11/28 04:30:55;;;;;;;5.57;4.80;;;8.90;75.20;;;11.38;55.45;101066.44;5079310;28;20184;-57
2022/11/28 04:33:28;;;;;;;6.10;4.60;;;8.90;75.40;;;11.36;55.16;101073.69;5077873;28;20274;-55
2022/11/28 04:35:57;;;;;;;5.33;4.50;;;8.90;75.40;;;11.45;55.37;101075.31;5059593;28;20228;-55
2022/11/28 04:38:29;;;;;;;5.20;4.70;;;8.90;76.30;;;11.42;55.08;101067.72;5059387;28;20189;-54
2022/11/28 04:41:05;;;;;;;5.40;4.87;;;8.90;75.70;;;11.35;55.66;101066.78;5059179;28;20180;-57
2022/11/28 04:43:38;;;;;;;5.17;4.53;;;8.90;76.10;;;11.35;55.77;101061.50;5077362;28;20247;-56
2022/11/28 04:46:13;;;;;;;5.87;4.80;;;8.90;76.50;;;11.34;56.81;101062.47;5100171;28;20200;-58
2022/11/28 04:48:41;;;;;;;5.33;4.67;;;8.90;77.10;;;11.37;56.42;101059.50;5081771;28;20189;-56
2022/11/28 04:51:19;;;;;;;4.70;4.30;;;8.90;77.40;;;11.36;56.94;101063.16;5079410;28;20231;-56
2022/11/28 04:53:59;;;;;;;5.43;4.93;;;8.90;77.60;;;11.32;57.19;101067.09;5079268;28;20185;-53
2022/11/28 04:56:35;;;;;;;5.17;4.57;;;8.80;77.80;;;11.33;57.20;101050.31;5079456;28;20599;-56
2022/11/28 04:59:06;;;;;;;6.50;5.30;;;8.90;78.10;;;11.30;57.52;101053.28;5077195;28;20193;-57
2022/11/28 05:01:35;;;;;;;6.07;5.20;;;8.80;78.20;;;11.32;57.21;101057.41;5075786;28;20308;-57
2022/11/28 05:04:03;;;;;;;4.77;4.23;;;8.80;78.50;;;11.26;57.71;101054.63;5075596;28;20209;-57
2022/11/28 05:06:33;;;;;;;6.50;4.80;;;8.80;78.70;;;11.24;58.10;101052.19;5075879;28;20243;-56
2022/11/28 05:09:02;;;;;;;6.10;5.50;;;8.80;78.90;;;11.27;57.50;101058.88;5076000;28;20239;-56
2022/11/28 05:11:31;;;;;;;6.73;5.30;;;8.70;78.80;;;11.21;57.54;101055.16;5075006;28;20263;-57
2022/11/28 05:13:58;;;;;;;5.90;5.23;;;8.80;78.80;;;11.17;57.51;101058.28;5076549;28;20209;-56
2022/11/28 05:16:25;;;;;;;6.40;4.80;;;8.70;78.80;;;11.16;57.88;101072.44;5092243;28;20194;-56
2022/11/28 05:18:52;;;;;;;7.13;5.20;;;8.70;79.00;;;11.20;58.01;101068.47;5072303;28;20289;-57
2022/11/28 05:21:20;;;;;;;5.10;4.60;;;8.70;79.00;;;11.21;58.03;101060.41;5055332;28;20279;-58
2022/11/28 05:23:47;;;;;;;5.87;4.90;;;8.70;79.10;;;11.24;58.44;101059.25;5055401;28;20189;-57
2022/11/28 05:26:18;;;;;;;5.60;4.67;;;8.70;79.20;;;11.21;57.77;101062.22;5056289;28;20220;-57
2022/11/28 05:28:49;;;;;;;5.30;4.80;;;8.70;79.30;;;11.20;57.55;101068.47;5055702;28;20178;-57
2022/11/28 05:31:18;;;;;;;5.60;5.00;;;8.70;79.10;;;11.10;58.27;101067.88;5062421;28;20270;-57
2022/11/28 05:33:46;;;;;;;5.30;4.80;;;8.60;79.00;;;11.10;58.28;101065.22;5075065;28;20262;-57
2022/11/28 05:36:15;;;;;;;7.73;5.50;;;8.70;79.30;;;11.05;58.11;101057.84;5075548;28;20288;-56
2022/11/28 05:38:43;;;;;;;6.17;4.77;;;8.60;79.60;;;10.99;59.05;101055.03;5075522;28;20684;-58
2022/11/28 05:41:19;;;;;;;5.80;5.13;;;8.60;79.70;;;10.93;58.68;101061.00;5074929;28;20217;-57
2022/11/28 05:43:46;;;;;;;5.43;4.60;;;8.60;79.70;;;10.98;59.08;101062.16;5086169;28;20274;-56
2022/11/28 05:46:14;;;;;;;6.20;4.73;;;8.60;79.80;;;11.01;58.65;101068.84;5081319;28;20217;-55
2022/11/28 05:48:41;;;;;;;5.83;4.83;;;8.60;80.00;;;10.96;58.90;101073.84;5075635;28;20288;-58
2022/11/28 05:51:08;;;;;;;6.53;4.73;;;8.50;79.90;;;10.97;59.33;101078.09;5074399;28;20734;-57
2022/11/28 05:53:35;;;;;;;5.87;4.70;;;8.50;80.20;;;10.92;59.12;101072.50;5074620;28;20250;-58
2022/11/28 05:56:06;;;;;;;5.63;4.97;;;8.60;81.30;;;10.89;59.74;101076.28;5075176;28;20189;-57
2022/11/28 05:58:35;;;;;;;5.63;5.03;;;8.50;80.60;;;10.91;59.98;101076.16;5074806;28;20178;-56
2022/11/28 06:01:10;;;;;;;7.50;5.23;;;8.50;80.90;;;10.83;59.77;101075.19;5073721;28;20259;-57
2022/11/28 06:03:37;;;;;;;5.87;5.10;;;8.50;81.40;;;10.83;59.78;101082.25;5074560;28;20218;-55
2022/11/28 06:06:10;;;;;;;5.90;4.37;;;8.50;81.40;;;10.81;60.32;101085.06;5074792;28;20240;-55
2022/11/28 06:08:37;;;;;;;7.70;5.30;;;8.40;81.50;;;10.76;60.52;101076.84;5074981;28;20197;-57
2022/11/28 06:11:04;;;;;;;6.33;5.10;;;8.40;81.60;;;10.75;60.31;101080.44;5073947;28;20675;-57
2022/11/28 06:13:31;;;;;;;5.13;4.53;;;8.40;81.90;;;10.72;60.19;101080.78;5075812;28;20201;-58
2022/11/28 06:16:00;;;;;;;5.30;4.80;;;8.40;81.90;;;10.76;60.39;101082.09;5089632;28;20200;-56
2022/11/28 06:18:27;;;;;;;7.30;5.20;;;8.40;82.20;;;10.67;61.05;101072.56;5094915;28;20533;-55
2022/11/28 06:20:54;;;;;;;8.20;5.30;;;8.30;82.10;;;10.63;61.06;101070.41;5054433;28;20610;-57
2022/11/28 06:23:21;;;;;;;5.73;5.13;;;8.30;82.10;;;10.61;60.66;101077.66;5054675;28;20593;-58
2022/11/28 06:25:48;;;;;;;6.60;5.33;;;8.30;82.20;;;10.59;61.36;101077.00;5054301;28;20229;-55
2022/11/28 06:28:15;;;;;;;5.70;5.20;;;8.30;82.50;;;10.55;61.14;101084.44;5056444;28;20196;-56
2022/11/28 06:30:43;;;;;;;6.93;6.20;;;8.20;82.60;;;10.53;61.33;101094.28;5071861;28;20199;-56
2022/11/28 06:33:12;;;;;;;5.73;5.10;;;8.20;82.80;;;10.58;61.60;101085.88;5074587;28;20747;-55
2022/11/28 06:35:39;;;;;;;5.93;4.97;;;8.20;82.90;;;10.58;61.89;101084.09;5075934;28;20194;-54
2022/11/28 06:38:06;;;;;;;6.83;5.40;;;8.20;83.20;;;10.51;61.75;101077.84;5074965;28;20707;-57
2022/11/28 06:40:40;;;;;;;7.00;5.90;;;8.20;83.20;;;10.50;62.14;101086.75;5073998;28;20285;-56
2022/11/28 06:43:07;;;;;;;6.30;5.40;;;8.20;83.40;;;10.53;61.45;101096.91;5073876;28;20723;-55
2022/11/28 06:45:34;;;;;;;7.13;5.87;;;8.20;83.60;;;10.54;61.68;101095.94;5092277;28;20212;-55
2022/11/28 06:48:02;;;;;;;7.27;5.93;;;8.20;83.80;;;10.55;61.91;101094.13;5074247;28;20197;-56
2022/11/28 06:50:32;;;;;;;6.77;5.93;;;8.20;84.00;;;10.57;61.57;101098.25;5073894;28;20242;-57
2022/11/28 06:52:59;;;;;;;6.13;5.00;;;8.20;84.00;;;10.61;61.70;101093.47;5057910;28;20263;-54
2022/11/28 06:55:28;;;;;;;5.83;5.17;;;8.20;84.20;;;10.59;62.08;101095.44;5054278;28;20555;-56
2022/11/28 06:57:55;;;;;;;7.03;5.40;;;8.20;84.30;;;10.57;62.26;101098.25;5053875;28;20201;-57
2022/11/28 07:00:23;;;;;;;7.73;5.73;;;8.20;84.40;;;10.61;62.26;101098.72;5054048;28;20198;-57
2022/11/28 07:02:50;;;;;;;7.80;6.13;;;8.20;84.80;;;10.62;62.25;101095.13;5054445;28;20206;-57
2022/11/28 07:05:18;;;;;;;8.27;6.37;;;8.20;84.80;;;10.52;62.43;101094.47;5078271;28;20221;-56
2022/11/28 07:07:47;;;;;;;7.73;6.63;;;8.10;84.90;;;10.56;63.05;101096.59;5068959;28;20255;-58
2022/11/28 07:10:21;;;;;;;7.03;6.07;;;8.10;85.00;;;10.52;63.02;101090.03;5073053;28;20189;-56
2022/11/28 07:12:53;;;;;;;7.47;5.97;;;8.10;85.10;;;10.51;62.96;101098.88;5072544;28;20284;-57
2022/11/28 07:15:20;;;;;;;6.13;5.53;;;8.10;85.10;;;10.49;62.47;101098.25;5073773;28;20202;-56
2022/11/28 07:17:48;;;;;;;6.67;6.00;;;8.10;85.20;;;10.49;62.65;101095.59;5074462;28;20201;-55
2022/11/28 07:20:15;;;;;;;7.00;6.13;;;8.10;85.30;;;10.49;63.18;101095.59;5067063;28;20209;-55
2022/11/28 07:22:43;;;;;;;6.93;5.73;;;8.10;85.30;;;10.51;62.83;101104.16;5053426;28;20251;-57
2022/11/28 07:25:13;;;;;;;6.87;5.90;;;8.10;85.20;;;10.52;63.00;101110.25;5053826;28;20215;-57
2022/11/28 07:27:40;;;;;;;7.30;6.43;;;8.10;85.30;;;10.50;62.70;101120.13;5053819;28;20542;-57
2022/11/28 07:30:09;;;;;;;6.70;6.10;;;8.10;85.30;;;10.55;62.53;101116.00;5053728;28;20201;-57
2022/11/28 07:32:39;;;;;;;11.17;7.03;;;8.10;85.20;;;10.58;62.72;101113.03;5053605;28;20213;-55
2022/11/28 07:35:07;;;;;;;6.73;6.07;;;8.10;85.30;;;10.58;62.60;101110.41;5063990;28;20196;-58
2022/11/28 07:37:35;;;;;;;8.27;7.47;;;8.10;85.30;;;10.65;62.68;101111.38;5074058;28;20268;-57
2022/11/28 07:40:04;;;;;;;6.93;6.20;;;8.10;85.30;;;10.57;61.83;101116.66;5073922;28;20250;-56
2022/11/28 07:42:32;;;;;;;8.13;6.80;;;8.10;84.60;;;10.54;61.75;101111.72;5072723;28;20293;-55
2022/11/28 07:45:00;;;;;;;6.53;5.83;;;8.10;84.50;;;10.48;62.22;101117.66;5073959;28;20217;-56
2022/11/28 07:47:27;;;;;;;7.70;6.43;;;8.10;84.50;;;10.43;62.11;101121.75;5073729;28;20250;-54
2022/11/28 07:49:54;;;;;;;6.10;5.50;;;8.10;84.40;;;10.44;63.14;101124.22;5072598;28;20233;-58
2022/11/28 07:52:21;;;;;;;8.00;5.90;;;8.10;84.70;;;10.45;62.88;101128.50;5072625;28;20936;-55
2022/11/28 07:54:49;;;;;;;6.77;6.10;;;8.10;84.90;;;10.50;62.91;101128.00;5073164;28;20189;-58
2022/11/28 07:57:16;;;;;;;8.63;6.43;;;8.10;85.10;;;10.47;62.76;101129.16;5073735;28;20185;-57
2022/11/28 07:59:44;;;;;;;6.70;6.10;;;8.10;85.30;;;10.37;63.03;101130.28;5074314;28;20197;-56
2022/11/28 08:02:12;;;;;;;7.67;6.73;;;8.10;85.60;;;10.30;63.31;101127.50;5073253;28;20278;-56
2022/11/28 08:04:39;;;;;;;7.47;6.07;;;8.10;85.80;;;10.27;63.85;101130.44;5054872;28;20198;-56
2022/11/28 08:07:26;;;;;;;7.90;6.27;;;8.00;86.10;;;10.29;64.11;101136.41;5072075;28;20268;-55
2022/11/28 08:09:53;;;;;;;10.07;7.10;;;8.00;86.40;;;10.34;64.62;101131.44;5073911;28;20291;-56
2022/11/28 08:12:20;;;;;;;7.23;6.53;;;8.00;86.60;;;10.32;64.27;101130.78;5071904;28;20209;-54
2022/11/28 08:14:48;;;;;;;6.63;5.83;;;8.00;86.50;;;10.37;64.42;101136.38;5080872;28;20268;-55
2022/11/28 08:17:15;;;;;;;6.70;6.00;;;8.00;86.60;;;10.42;63.70;101133.25;5087934;28;20201;-58
2022/11/28 08:19:42;;;;;;;7.90;6.47;;;8.00;86.80;;;10.43;64.21;101127.03;5064509;28;20210;-57
2022/11/28 08:22:09;;;;;;;6.37;5.73;;;8.00;86.90;;;10.48;63.37;101130.81;5053874;28;20218;-55
2022/11/28 08:24:36;;;;;;;7.40;6.53;;;8.00;86.80;;;10.40;64.05;101124.72;5054845;28;20202;-55
2022/11/28 08:27:03;;;;;;;7.87;6.53;;;8.00;86.50;;;10.40;63.82;101133.44;5053808;28;20218;-57
2022/11/28 08:29:30;;;;;;;8.37;6.70;;;8.00;86.50;;;10.39;64.13;101130.97;5053326;28;20201;-54
2022/11/28 08:31:59;;;;;;;8.07;6.70;;;8.00;86.60;;;10.31;64.00;101129.16;5052951;28;20290;-52
2022/11/28 08:34:26;;;;;;;7.13;6.17;;;8.00;86.40;;;10.28;63.92;101140.00;5055348;28;20205;-59
2022/11/28 08:36:53;;;;;;;7.80;7.00;;;8.00;86.50;;;10.34;63.97;101134.06;5059465;28;20256;-58
2022/11/28 08:39:20;;;;;;;7.53;6.73;;;8.00;86.50;;;10.34;63.75;101134.06;5071559;28;20201;-55
2022/11/28 08:41:51;;;;;;;7.07;5.77;;;8.00;86.50;;;10.40;64.06;101138.69;5078487;28;20248;-59
2022/11/28 08:44:18;;;;;;;10.10;9.07;;;8.00;86.50;;;10.32;63.30;101130.00;5078207;28;20197;-58
2022/11/28 08:46:45;;;;;;;9.30;6.77;;;8.00;86.40;;;10.27;64.26;101130.44;5072568;28;20213;-56
2022/11/28 08:49:14;;;;;;;7.40;6.20;;;8.00;86.40;;;10.23;63.69;101134.41;5077145;28;20215;-55
2022/11/28 08:51:41;;;;;;;9.13;7.10;;;8.00;86.30;;;10.26;64.23;101128.81;5073602;28;20236;-57
2022/11/28 08:54:09;;;;;;;7.63;6.87;;;8.00;86.40;;;10.28;63.79;101134.75;5079776;28;20188;-58
2022/11/28 08:56:36;;;;;;;8.50;7.47;;;8.00;86.50;;;10.32;63.90;101133.41;5075513;28;20193;-58
2022/11/28 08:59:03;;;;;;;6.53;5.93;;;8.00;86.60;;;10.34;63.82;101122.75;5054913;28;20190;-57
2022/11/28 09:01:30;;;;;;;7.50;6.53;;;7.90;86.60;;;10.37;63.75;101136.38;5069493;28;20243;-60
2022/11/28 09:03:58;;;;;;;10.97;7.50;;;8.00;86.70;;;10.41;64.02;101129.81;5080666;28;20197;-58
2022/11/28 09:06:26;;;;;;;7.67;6.37;;;8.00;86.50;;;10.45;63.65;101123.25;5083861;28;20695;-57
2022/11/28 09:08:53;;;;;;;7.27;6.00;;;8.10;86.60;;;10.50;63.31;101128.00;5070186;28;20669;-60
2022/11/28 09:11:22;;;;;;;7.80;6.50;;;8.10;86.70;;;10.41;63.45;101135.06;5078534;28;20223;-56
2022/11/28 09:13:49;;;;;;;7.10;6.20;;;8.10;86.30;;;10.39;63.57;101131.78;5086345;28;20271;-56
2022/11/28 09:16:18;;;;;;;7.57;6.13;;;8.10;86.20;;;10.41;63.45;101132.44;5074481;28;20201;-58
2022/11/28 09:18:45;;;;;;;6.60;5.77;;;8.10;86.10;;;10.48;63.37;101127.38;5073193;28;20234;-57
2022/11/28 09:21:14;;;;;;;7.80;5.70;;;8.10;86.10;;;10.56;63.60;101136.06;5068548;28;20297;-58
2022/11/28 09:23:44;;;;;;;7.63;6.60;;;8.10;86.20;;;10.60;62.91;101129.47;5066066;28;20189;-56
2022/11/28 09:26:14;;;;;;;8.03;6.17;;;8.20;86.10;;;10.59;63.27;101133.13;5070385;28;20291;-56
2022/11/28 09:29:05;;;;;;;6.47;5.60;;;8.20;85.80;;;10.62;62.67;101119.63;5063443;28;20229;-58
2022/11/28 09:31:32;;;;;;;8.93;7.37;;;8.20;85.80;;;10.57;62.70;101129.00;5063138;28;20661;-57
2022/11/28 09:34:02;;;;;;;10.77;7.13;;;8.20;85.60;;;10.53;62.99;101122.44;5075577;28;20816;-57
2022/11/28 09:36:32;;;;;;;10.40;7.00;;;8.20;85.70;;;10.55;63.11;101131.81;5076434;28;20667;-59
2022/11/28 09:39:01;;;;;;;12.40;7.80;;;8.20;85.70;;;10.58;62.96;101131.47;5076299;28;20215;-59
2022/11/28 09:41:53;;;;;;;8.53;6.30;;;8.20;85.80;;;10.56;63.26;101133.44;5059743;28;20253;-57
2022/11/28 09:44:25;;;;;;;11.10;7.20;;;8.20;85.60;;;10.50;63.14;101126.22;5085064;28;20192;-56
2022/11/28 09:47:03;;;;;;;7.43;6.40;;;8.20;85.60;;;10.43;62.87;101133.13;5061229;28;20213;-55
2022/11/28 09:49:40;;;;;;;9.63;6.37;;;8.10;85.50;;;10.46;63.44;101127.50;5075973;28;20237;-57
2022/11/28 09:52:25;;;;;;;8.77;6.63;;;8.10;85.70;;;10.46;63.29;101126.72;5074736;28;20244;-57
2022/11/28 09:55:04;;;;;;;9.37;6.20;;;8.10;85.90;;;10.43;63.86;101127.84;5076257;28;20197;-54
2022/11/28 09:57:38;;;;;;;8.03;6.77;;;8.10;86.00;;;10.49;63.82;101131.63;5075191;28;20181;-57
2022/11/28 10:00:15;;;;;;;7.20;6.37;;;8.20;86.00;;;10.57;63.50;101123.75;5077373;28;20532;-56
2022/11/28 10:02:55;;;;;;;8.20;6.57;;;8.20;86.20;;;10.56;63.69;101128.16;5060927;28;20277;-57
2022/11/28 10:05:34;;;;;;;7.57;6.20;;;8.20;86.10;;;10.59;63.62;101121.75;5058995;28;20185;-56
2022/11/28 10:08:20;;;;;;;10.23;6.70;;;8.20;86.20;;;10.60;63.31;101116.31;5077411;28;20530;-59
2022/11/28 10:10:59;;;;;;;7.50;6.63;;;8.20;86.20;;;10.67;63.39;101119.94;5059748;28;20593;-58
2022/11/28 10:13:40;;;;;;;7.00;6.13;;;8.20;86.20;;;10.70;63.27;101119.59;5055165;28;20182;-56
2022/11/28 10:16:45;;;;;;;7.17;6.40;;;8.20;86.20;;;10.73;63.03;101114.03;5055358;28;20202;-55
2022/11/28 10:19:18;;;;;;;7.43;5.77;;;8.30;86.30;;;10.81;63.12;101119.28;5060567;28;20189;-57
2022/11/28 10:22:15;;;;;;;7.17;5.80;;;8.30;86.30;;;10.84;62.80;101121.56;5054635;28;20233;-57
2022/11/28 10:24:49;;;;;;;7.77;6.80;;;8.30;86.30;;;10.87;63.24;101121.25;5058026;28;20568;-57
2022/11/28 10:27:31;;;;;;;6.70;6.00;;;8.40;86.30;;;10.82;62.70;101118.28;5055253;28;20225;-57
2022/11/28 10:30:03;;;;;;;7.93;6.43;;;8.40;86.00;;;10.76;62.71;101118.97;5054791;28;20198;-56
2022/11/28 10:32:37;;;;;;;8.17;6.43;;;8.30;85.70;;;10.81;63.20;101116.66;5052786;28;20689;-57
2022/11/28 10:35:12;;;;;;;6.90;6.20;;;8.30;85.60;;;10.77;62.48;101123.22;5061043;28;20200;-57
2022/11/28 10:37:39;;;;;;;10.47;7.70;;;8.30;85.40;;;10.73;62.86;101121.91;5072739;28;20844;-56